sensor_id;sensor_type;location;lat;lon;timestamp;temperature;humidity
3542;DHT22;1785;47.388;8.538;2023-06-10T00:02:01;24.20;87.00
3542;DHT22;1785;47.388;8.538;2023-06-10T00:04:29;24.00;87.80
3542;DHT22;1785;47.388;8.538;2023-06-10T00:06:55;24.10;88.10
3542;DHT22;1785;47.388;8.538;2023-06-10T00:09:22;23.90;88.20
3542;DHT22;1785;47.388;8.538;2023-06-10T00:11:48;24.10;88.40
3542;DHT22;1785;47.388;8.538;2023-06-10T00:14:15;24.40;88.10
3542;DHT22;1785;47.388;8.538;2023-06-10T00:16:41;24.00;88.20
3542;DHT22;1785;47.388;8.538;2023-06-10T00:19:10;23.70;89.00
3542;DHT22;1785;47.388;8.538;2023-06-10T00:21:39;23.80;90.20
3542;DHT22;1785;47.388;8.538;2023-06-10T00:24:07;24.10;88.30
3542;DHT22;1785;47.388;8.538;2023-06-10T00:26:37;24.40;87.40
3542;DHT22;1785;47.388;8.538;2023-06-10T00:29:03;24.60;87.10
3542;DHT22;1785;47.388;8.538;2023-06-10T00:31:29;24.70;87.00
3542;DHT22;1785;47.388;8.538;2023-06-10T00:33:57;24.60;87.40
3542;DHT22;1785;47.388;8.538;2023-06-10T00:36:24;24.50;87.40
3542;DHT22;1785;47.388;8.538;2023-06-10T00:38:50;24.50;87.40
3542;DHT22;1785;47.388;8.538;2023-06-10T00:41:16;24.20;87.70
3542;DHT22;1785;47.388;8.538;2023-06-10T00:43:42;24.10;88.20
3542;DHT22;1785;47.388;8.538;2023-06-10T00:46:09;24.10;88.30
3542;DHT22;1785;47.388;8.538;2023-06-10T00:48:37;23.90;88.50
3542;DHT22;1785;47.388;8.538;2023-06-10T00:51:05;23.90;88.70
3542;DHT22;1785;47.388;8.538;2023-06-10T00:53:32;23.90;89.00
3542;DHT22;1785;47.388;8.538;2023-06-10T00:55:59;24.10;88.50
3542;DHT22;1785;47.388;8.538;2023-06-10T00:58:25;24.30;88.30
3542;DHT22;1785;47.388;8.538;2023-06-10T01:00:51;24.60;87.90
3542;DHT22;1785;47.388;8.538;2023-06-10T01:03:18;24.30;88.00
3542;DHT22;1785;47.388;8.538;2023-06-10T01:05:50;24.20;88.00
3542;DHT22;1785;47.388;8.538;2023-06-10T01:08:31;23.90;88.50
3542;DHT22;1785;47.388;8.538;2023-06-10T01:11:00;23.70;89.10
3542;DHT22;1785;47.388;8.538;2023-06-10T01:13:28;23.90;89.00
3542;DHT22;1785;47.388;8.538;2023-06-10T01:15:55;24.20;88.40
3542;DHT22;1785;47.388;8.538;2023-06-10T01:18:21;24.40;87.50
3542;DHT22;1785;47.388;8.538;2023-06-10T01:20:48;24.50;87.80
3542;DHT22;1785;47.388;8.538;2023-06-10T01:23:15;24.40;88.20
3542;DHT22;1785;47.388;8.538;2023-06-10T01:25:46;24.40;88.40
3542;DHT22;1785;47.388;8.538;2023-06-10T01:28:17;24.30;88.20
3542;DHT22;1785;47.388;8.538;2023-06-10T01:30:50;24.40;88.30
3542;DHT22;1785;47.388;8.538;2023-06-10T01:33:24;24.40;88.10
3542;DHT22;1785;47.388;8.538;2023-06-10T01:35:51;24.20;89.00
3542;DHT22;1785;47.388;8.538;2023-06-10T01:38:19;24.00;88.80
3542;DHT22;1785;47.388;8.538;2023-06-10T01:40:47;23.60;89.60
3542;DHT22;1785;47.388;8.538;2023-06-10T01:43:14;23.50;90.00
3542;DHT22;1785;47.388;8.538;2023-06-10T01:45:40;23.70;89.90
3542;DHT22;1785;47.388;8.538;2023-06-10T01:48:06;23.70;89.50
3542;DHT22;1785;47.388;8.538;2023-06-10T01:50:32;23.70;89.40
3542;DHT22;1785;47.388;8.538;2023-06-10T01:53:00;23.70;89.50
3542;DHT22;1785;47.388;8.538;2023-06-10T01:55:26;23.50;89.80
3542;DHT22;1785;47.388;8.538;2023-06-10T01:57:52;23.40;89.60
3542;DHT22;1785;47.388;8.538;2023-06-10T02:00:19;23.40;89.60
3542;DHT22;1785;47.388;8.538;2023-06-10T02:02:45;23.40;89.60
3542;DHT22;1785;47.388;8.538;2023-06-10T02:05:11;23.30;89.70
3542;DHT22;1785;47.388;8.538;2023-06-10T02:07:37;23.30;89.70
3542;DHT22;1785;47.388;8.538;2023-06-10T02:10:04;23.40;89.50
3542;DHT22;1785;47.388;8.538;2023-06-10T02:12:31;23.40;89.40
3542;DHT22;1785;47.388;8.538;2023-06-10T02:14:57;23.40;89.10
3542;DHT22;1785;47.388;8.538;2023-06-10T02:17:23;23.40;89.20
3542;DHT22;1785;47.388;8.538;2023-06-10T02:19:50;23.40;89.60
3542;DHT22;1785;47.388;8.538;2023-06-10T02:22:21;23.30;89.60
3542;DHT22;1785;47.388;8.538;2023-06-10T02:24:47;22.80;90.40
3542;DHT22;1785;47.388;8.538;2023-06-10T02:27:14;22.60;90.50
3542;DHT22;1785;47.388;8.538;2023-06-10T02:29:41;22.80;90.40
3542;DHT22;1785;47.388;8.538;2023-06-10T02:32:09;22.90;90.40
3542;DHT22;1785;47.388;8.538;2023-06-10T02:34:35;23.00;90.20
3542;DHT22;1785;47.388;8.538;2023-06-10T02:37:02;23.20;90.10
3542;DHT22;1785;47.388;8.538;2023-06-10T02:39:28;23.20;89.80
3542;DHT22;1785;47.388;8.538;2023-06-10T02:41:54;23.20;89.70
3542;DHT22;1785;47.388;8.538;2023-06-10T02:44:20;23.00;90.00
3542;DHT22;1785;47.388;8.538;2023-06-10T02:46:47;22.80;90.20
3542;DHT22;1785;47.388;8.538;2023-06-10T02:49:13;22.90;90.20
3542;DHT22;1785;47.388;8.538;2023-06-10T02:51:39;23.10;90.00
3542;DHT22;1785;47.388;8.538;2023-06-10T02:54:05;23.00;90.00
3542;DHT22;1785;47.388;8.538;2023-06-10T02:56:31;22.90;90.30
3542;DHT22;1785;47.388;8.538;2023-06-10T02:58:58;23.00;90.20
3542;DHT22;1785;47.388;8.538;2023-06-10T03:01:25;23.00;90.10
3542;DHT22;1785;47.388;8.538;2023-06-10T03:03:51;22.90;90.10
3542;DHT22;1785;47.388;8.538;2023-06-10T03:06:18;22.80;90.30
3542;DHT22;1785;47.388;8.538;2023-06-10T03:08:44;22.80;90.30
3542;DHT22;1785;47.388;8.538;2023-06-10T03:11:17;22.70;90.40
3542;DHT22;1785;47.388;8.538;2023-06-10T03:13:44;22.40;90.70
3542;DHT22;1785;47.388;8.538;2023-06-10T03:16:11;22.30;90.80
3542;DHT22;1785;47.388;8.538;2023-06-10T03:18:38;22.10;91.00
3542;DHT22;1785;47.388;8.538;2023-06-10T03:21:04;22.10;91.10
3542;DHT22;1785;47.388;8.538;2023-06-10T03:23:30;22.20;90.90
3542;DHT22;1785;47.388;8.538;2023-06-10T03:25:57;22.30;90.80
3542;DHT22;1785;47.388;8.538;2023-06-10T03:28:23;22.20;91.00
3542;DHT22;1785;47.388;8.538;2023-06-10T03:30:49;22.30;90.90
3542;DHT22;1785;47.388;8.538;2023-06-10T03:33:17;22.50;90.80
3542;DHT22;1785;47.388;8.538;2023-06-10T03:35:43;22.60;90.70
3542;DHT22;1785;47.388;8.538;2023-06-10T03:38:10;22.70;90.50
3542;DHT22;1785;47.388;8.538;2023-06-10T03:40:36;22.70;90.50
3542;DHT22;1785;47.388;8.538;2023-06-10T03:43:02;22.70;90.60
3542;DHT22;1785;47.388;8.538;2023-06-10T03:45:28;22.50;90.60
3542;DHT22;1785;47.388;8.538;2023-06-10T03:47:54;22.50;90.60
3542;DHT22;1785;47.388;8.538;2023-06-10T03:50:21;22.70;90.70
3542;DHT22;1785;47.388;8.538;2023-06-10T03:52:48;22.50;90.80
3542;DHT22;1785;47.388;8.538;2023-06-10T03:55:16;22.50;90.90
3542;DHT22;1785;47.388;8.538;2023-06-10T03:57:42;22.60;90.90
3542;DHT22;1785;47.388;8.538;2023-06-10T04:00:09;22.50;91.00
3542;DHT22;1785;47.388;8.538;2023-06-10T04:02:36;22.40;91.10
3542;DHT22;1785;47.388;8.538;2023-06-10T04:05:03;22.20;91.20
3542;DHT22;1785;47.388;8.538;2023-06-10T04:07:29;22.20;91.20
3542;DHT22;1785;47.388;8.538;2023-06-10T04:09:56;22.10;91.20
3542;DHT22;1785;47.388;8.538;2023-06-10T04:12:23;22.10;91.30
3542;DHT22;1785;47.388;8.538;2023-06-10T04:14:49;22.30;91.20
3542;DHT22;1785;47.388;8.538;2023-06-10T04:17:16;22.00;91.50
3542;DHT22;1785;47.388;8.538;2023-06-10T04:19:42;21.70;91.70
3542;DHT22;1785;47.388;8.538;2023-06-10T04:22:09;21.50;91.90
3542;DHT22;1785;47.388;8.538;2023-06-10T04:24:35;21.30;92.20
3542;DHT22;1785;47.388;8.538;2023-06-10T04:27:01;21.30;92.10
3542;DHT22;1785;47.388;8.538;2023-06-10T04:29:29;21.50;92.00
3542;DHT22;1785;47.388;8.538;2023-06-10T04:31:56;21.80;92.00
3542;DHT22;1785;47.388;8.538;2023-06-10T04:34:23;22.10;91.90
3542;DHT22;1785;47.388;8.538;2023-06-10T04:36:49;21.90;91.90
3542;DHT22;1785;47.388;8.538;2023-06-10T04:39:16;21.70;92.00
3542;DHT22;1785;47.388;8.538;2023-06-10T04:41:42;21.60;92.50
3542;DHT22;1785;47.388;8.538;2023-06-10T04:44:08;21.60;92.70
3542;DHT22;1785;47.388;8.538;2023-06-10T04:46:36;21.10;93.20
3542;DHT22;1785;47.388;8.538;2023-06-10T04:49:02;21.00;93.50
3542;DHT22;1785;47.388;8.538;2023-06-10T04:51:30;21.00;93.60
3542;DHT22;1785;47.388;8.538;2023-06-10T04:53:57;21.10;93.80
3542;DHT22;1785;47.388;8.538;2023-06-10T04:56:23;21.30;93.70
3542;DHT22;1785;47.388;8.538;2023-06-10T04:58:49;21.50;93.60
3542;DHT22;1785;47.388;8.538;2023-06-10T05:01:15;21.50;93.60
3542;DHT22;1785;47.388;8.538;2023-06-10T05:03:42;21.50;93.60
3542;DHT22;1785;47.388;8.538;2023-06-10T05:06:08;21.40;93.90
3542;DHT22;1785;47.388;8.538;2023-06-10T05:08:35;21.40;93.80
3542;DHT22;1785;47.388;8.538;2023-06-10T05:11:01;21.50;93.60
3542;DHT22;1785;47.388;8.538;2023-06-10T05:13:27;21.40;93.50
3542;DHT22;1785;47.388;8.538;2023-06-10T05:15:53;21.50;93.50
3542;DHT22;1785;47.388;8.538;2023-06-10T05:18:19;21.50;93.30
3542;DHT22;1785;47.388;8.538;2023-06-10T05:20:46;21.60;93.40
3542;DHT22;1785;47.388;8.538;2023-06-10T05:23:12;21.80;93.10
3542;DHT22;1785;47.388;8.538;2023-06-10T05:25:38;21.80;93.10
3542;DHT22;1785;47.388;8.538;2023-06-10T05:28:05;21.60;93.60
3542;DHT22;1785;47.388;8.538;2023-06-10T05:30:35;21.60;93.50
3542;DHT22;1785;47.388;8.538;2023-06-10T05:33:01;21.60;93.60
3542;DHT22;1785;47.388;8.538;2023-06-10T05:35:27;21.80;93.50
3542;DHT22;1785;47.388;8.538;2023-06-10T05:37:54;21.40;93.70
3542;DHT22;1785;47.388;8.538;2023-06-10T05:40:20;21.00;94.10
3542;DHT22;1785;47.388;8.538;2023-06-10T05:42:46;21.10;94.20
3542;DHT22;1785;47.388;8.538;2023-06-10T05:45:12;21.00;94.40
3542;DHT22;1785;47.388;8.538;2023-06-10T05:47:39;20.90;94.70
3542;DHT22;1785;47.388;8.538;2023-06-10T05:50:06;21.40;94.10
3542;DHT22;1785;47.388;8.538;2023-06-10T05:52:34;21.60;93.90
3542;DHT22;1785;47.388;8.538;2023-06-10T05:55:00;21.60;93.70
3542;DHT22;1785;47.388;8.538;2023-06-10T05:57:26;21.80;93.70
3542;DHT22;1785;47.388;8.538;2023-06-10T05:59:52;22.00;93.40
3542;DHT22;1785;47.388;8.538;2023-06-10T06:02:18;22.00;93.50
3542;DHT22;1785;47.388;8.538;2023-06-10T06:04:44;22.00;93.50
3542;DHT22;1785;47.388;8.538;2023-06-10T06:07:10;21.90;93.60
3542;DHT22;1785;47.388;8.538;2023-06-10T06:09:37;21.60;93.80
3542;DHT22;1785;47.388;8.538;2023-06-10T06:12:04;21.70;94.10
3542;DHT22;1785;47.388;8.538;2023-06-10T06:14:32;22.10;93.90
3542;DHT22;1785;47.388;8.538;2023-06-10T06:16:58;22.20;93.60
3542;DHT22;1785;47.388;8.538;2023-06-10T06:19:25;22.30;93.70
3542;DHT22;1785;47.388;8.538;2023-06-10T06:21:51;22.30;93.60
3542;DHT22;1785;47.388;8.538;2023-06-10T06:24:17;22.10;93.70
3542;DHT22;1785;47.388;8.538;2023-06-10T06:26:43;21.90;94.10
3542;DHT22;1785;47.388;8.538;2023-06-10T06:29:10;22.00;94.30
3542;DHT22;1785;47.388;8.538;2023-06-10T06:31:36;22.00;94.20
3542;DHT22;1785;47.388;8.538;2023-06-10T06:34:02;21.90;94.10
3542;DHT22;1785;47.388;8.538;2023-06-10T06:36:28;21.70;94.30
3542;DHT22;1785;47.388;8.538;2023-06-10T06:38:54;21.80;94.30
3542;DHT22;1785;47.388;8.538;2023-06-10T06:41:20;22.00;94.30
3542;DHT22;1785;47.388;8.538;2023-06-10T06:43:47;22.10;94.30
3542;DHT22;1785;47.388;8.538;2023-06-10T06:46:14;22.30;94.50
3542;DHT22;1785;47.388;8.538;2023-06-10T06:48:41;22.60;94.10
3542;DHT22;1785;47.388;8.538;2023-06-10T06:51:07;22.70;93.80
3542;DHT22;1785;47.388;8.538;2023-06-10T06:53:33;22.30;93.80
3542;DHT22;1785;47.388;8.538;2023-06-10T06:55:59;22.10;94.10
3542;DHT22;1785;47.388;8.538;2023-06-10T06:58:25;22.00;94.30
3542;DHT22;1785;47.388;8.538;2023-06-10T07:00:51;21.90;94.60
3542;DHT22;1785;47.388;8.538;2023-06-10T07:03:18;22.10;94.80
3542;DHT22;1785;47.388;8.538;2023-06-10T07:05:44;22.40;94.60
3542;DHT22;1785;47.388;8.538;2023-06-10T07:08:11;22.40;94.60
3542;DHT22;1785;47.388;8.538;2023-06-10T07:10:37;22.60;94.30
3542;DHT22;1785;47.388;8.538;2023-06-10T07:13:04;22.50;94.30
3542;DHT22;1785;47.388;8.538;2023-06-10T07:15:30;22.60;94.30
3542;DHT22;1785;47.388;8.538;2023-06-10T07:17:58;22.60;94.20
3542;DHT22;1785;47.388;8.538;2023-06-10T07:20:24;22.70;94.10
3542;DHT22;1785;47.388;8.538;2023-06-10T07:22:51;22.70;94.00
3542;DHT22;1785;47.388;8.538;2023-06-10T07:25:17;22.40;94.50
3542;DHT22;1785;47.388;8.538;2023-06-10T07:27:43;22.30;94.50
3542;DHT22;1785;47.388;8.538;2023-06-10T07:30:09;22.40;94.70
3542;DHT22;1785;47.388;8.538;2023-06-10T07:32:36;22.50;95.00
3542;DHT22;1785;47.388;8.538;2023-06-10T07:35:03;22.50;95.00
3542;DHT22;1785;47.388;8.538;2023-06-10T07:37:30;22.70;94.40
3542;DHT22;1785;47.388;8.538;2023-06-10T07:39:57;22.60;94.40
3542;DHT22;1785;47.388;8.538;2023-06-10T07:42:23;22.40;94.20
3542;DHT22;1785;47.388;8.538;2023-06-10T07:44:49;22.80;94.00
3542;DHT22;1785;47.388;8.538;2023-06-10T07:47:15;22.50;94.00
3542;DHT22;1785;47.388;8.538;2023-06-10T07:49:41;22.20;94.20
3542;DHT22;1785;47.388;8.538;2023-06-10T07:52:08;22.10;94.30
3542;DHT22;1785;47.388;8.538;2023-06-10T07:54:35;22.10;94.30
3542;DHT22;1785;47.388;8.538;2023-06-10T07:57:01;22.50;94.50
3542;DHT22;1785;47.388;8.538;2023-06-10T07:59:27;22.50;94.00
3542;DHT22;1785;47.388;8.538;2023-06-10T08:01:53;22.60;94.10
3542;DHT22;1785;47.388;8.538;2023-06-10T08:04:19;22.80;93.70
3542;DHT22;1785;47.388;8.538;2023-06-10T08:06:46;23.00;93.20
3542;DHT22;1785;47.388;8.538;2023-06-10T08:09:12;23.00;93.90
3542;DHT22;1785;47.388;8.538;2023-06-10T08:11:39;23.00;93.50
3542;DHT22;1785;47.388;8.538;2023-06-10T08:14:05;23.20;93.60
3542;DHT22;1785;47.388;8.538;2023-06-10T08:16:31;22.60;93.80
3542;DHT22;1785;47.388;8.538;2023-06-10T08:18:57;22.50;94.30
3542;DHT22;1785;47.388;8.538;2023-06-10T08:21:23;22.80;94.30
3542;DHT22;1785;47.388;8.538;2023-06-10T08:23:52;23.20;94.00
3542;DHT22;1785;47.388;8.538;2023-06-10T08:26:19;23.30;93.80
3542;DHT22;1785;47.388;8.538;2023-06-10T08:28:45;23.20;93.90
3542;DHT22;1785;47.388;8.538;2023-06-10T08:31:12;23.40;93.90
3542;DHT22;1785;47.388;8.538;2023-06-10T08:33:38;23.50;93.70
3542;DHT22;1785;47.388;8.538;2023-06-10T08:36:04;23.60;93.80
3542;DHT22;1785;47.388;8.538;2023-06-10T08:38:30;23.60;93.70
3542;DHT22;1785;47.388;8.538;2023-06-10T08:40:59;23.70;93.50
3542;DHT22;1785;47.388;8.538;2023-06-10T08:43:32;23.80;93.50
3542;DHT22;1785;47.388;8.538;2023-06-10T08:46:01;23.80;93.50
3542;DHT22;1785;47.388;8.538;2023-06-10T08:48:29;23.80;93.60
3542;DHT22;1785;47.388;8.538;2023-06-10T08:50:57;23.50;93.70
3542;DHT22;1785;47.388;8.538;2023-06-10T08:53:24;23.40;94.00
3542;DHT22;1785;47.388;8.538;2023-06-10T08:55:52;23.30;93.70
3542;DHT22;1785;47.388;8.538;2023-06-10T08:58:19;23.70;93.70
3542;DHT22;1785;47.388;8.538;2023-06-10T09:00:46;23.90;93.60
3542;DHT22;1785;47.388;8.538;2023-06-10T09:03:13;23.60;93.30
3542;DHT22;1785;47.388;8.538;2023-06-10T09:05:39;23.60;93.20
3542;DHT22;1785;47.388;8.538;2023-06-10T09:08:06;23.60;92.70
3542;DHT22;1785;47.388;8.538;2023-06-10T09:10:32;23.70;92.50
3542;DHT22;1785;47.388;8.538;2023-06-10T09:12:58;24.10;92.30
3542;DHT22;1785;47.388;8.538;2023-06-10T09:15:25;24.40;91.90
3542;DHT22;1785;47.388;8.538;2023-06-10T09:17:51;24.00;91.80
3542;DHT22;1785;47.388;8.538;2023-06-10T09:20:19;24.30;92.20
3542;DHT22;1785;47.388;8.538;2023-06-10T09:22:45;24.70;91.90
3542;DHT22;1785;47.388;8.538;2023-06-10T09:25:13;24.80;91.60
3542;DHT22;1785;47.388;8.538;2023-06-10T09:27:46;24.20;92.00
3542;DHT22;1785;47.388;8.538;2023-06-10T09:30:33;24.40;92.40
3542;DHT22;1785;47.388;8.538;2023-06-10T09:33:01;24.70;91.40
3542;DHT22;1785;47.388;8.538;2023-06-10T09:35:30;24.40;91.30
3542;DHT22;1785;47.388;8.538;2023-06-10T09:37:57;24.40;91.80
3542;DHT22;1785;47.388;8.538;2023-06-10T09:40:24;24.60;91.80
3542;DHT22;1785;47.388;8.538;2023-06-10T09:42:53;24.50;92.00
3542;DHT22;1785;47.388;8.538;2023-06-10T09:45:21;24.80;92.20
3542;DHT22;1785;47.388;8.538;2023-06-10T09:47:50;24.90;92.10
3542;DHT22;1785;47.388;8.538;2023-06-10T09:50:17;24.70;91.80
3542;DHT22;1785;47.388;8.538;2023-06-10T09:52:46;24.80;92.10
3542;DHT22;1785;47.388;8.538;2023-06-10T09:55:12;24.60;91.90
3542;DHT22;1785;47.388;8.538;2023-06-10T09:57:38;24.30;92.50
3542;DHT22;1785;47.388;8.538;2023-06-10T10:00:11;24.30;91.50
3542;DHT22;1785;47.388;8.538;2023-06-10T10:02:45;24.40;92.10
3542;DHT22;1785;47.388;8.538;2023-06-10T10:05:13;24.90;91.90
3542;DHT22;1785;47.388;8.538;2023-06-10T10:07:40;25.40;91.70
3542;DHT22;1785;47.388;8.538;2023-06-10T10:10:08;25.20;90.30
3542;DHT22;1785;47.388;8.538;2023-06-10T10:12:38;25.10;90.70
3542;DHT22;1785;47.388;8.538;2023-06-10T10:15:06;25.40;90.60
3542;DHT22;1785;47.388;8.538;2023-06-10T10:17:34;25.50;90.20
3542;DHT22;1785;47.388;8.538;2023-06-10T10:20:03;25.80;90.40
3542;DHT22;1785;47.388;8.538;2023-06-10T10:22:35;25.80;90.40
3542;DHT22;1785;47.388;8.538;2023-06-10T10:25:04;25.80;90.40
3542;DHT22;1785;47.388;8.538;2023-06-10T10:27:36;25.80;90.20
3542;DHT22;1785;47.388;8.538;2023-06-10T10:30:03;26.00;90.50
3542;DHT22;1785;47.388;8.538;2023-06-10T10:32:37;26.30;90.60
3542;DHT22;1785;47.388;8.538;2023-06-10T10:35:08;26.10;90.30
3542;DHT22;1785;47.388;8.538;2023-06-10T10:37:35;25.90;90.60
3542;DHT22;1785;47.388;8.538;2023-06-10T10:40:02;25.80;91.10
3542;DHT22;1785;47.388;8.538;2023-06-10T10:42:30;26.10;91.00
3542;DHT22;1785;47.388;8.538;2023-06-10T10:44:57;25.90;91.10
3542;DHT22;1785;47.388;8.538;2023-06-10T10:47:27;25.90;91.10
3542;DHT22;1785;47.388;8.538;2023-06-10T10:49:54;26.20;91.00
3542;DHT22;1785;47.388;8.538;2023-06-10T10:52:24;26.00;91.00
3542;DHT22;1785;47.388;8.538;2023-06-10T10:54:53;25.90;90.90
3542;DHT22;1785;47.388;8.538;2023-06-10T10:57:22;25.90;91.00
3542;DHT22;1785;47.388;8.538;2023-06-10T10:59:54;26.20;91.00
3542;DHT22;1785;47.388;8.538;2023-06-10T11:02:41;26.50;90.60
3542;DHT22;1785;47.388;8.538;2023-06-10T11:05:09;26.30;90.30
3542;DHT22;1785;47.388;8.538;2023-06-10T11:07:36;26.50;89.40
3542;DHT22;1785;47.388;8.538;2023-06-10T11:10:05;26.40;88.50
3542;DHT22;1785;47.388;8.538;2023-06-10T11:12:47;26.30;89.00
3542;DHT22;1785;47.388;8.538;2023-06-10T11:15:18;26.70;89.50
3542;DHT22;1785;47.388;8.538;2023-06-10T11:18:12;27.00;90.00
3542;DHT22;1785;47.388;8.538;2023-06-10T11:20:51;27.20;88.90
3542;DHT22;1785;47.388;8.538;2023-06-10T11:23:33;27.00;88.60
3542;DHT22;1785;47.388;8.538;2023-06-10T11:26:15;27.10;89.00
3542;DHT22;1785;47.388;8.538;2023-06-10T11:29:01;27.30;89.20
3542;DHT22;1785;47.388;8.538;2023-06-10T11:31:29;27.50;89.20
3542;DHT22;1785;47.388;8.538;2023-06-10T11:33:57;27.50;89.00
3542;DHT22;1785;47.388;8.538;2023-06-10T11:36:25;27.30;89.40
3542;DHT22;1785;47.388;8.538;2023-06-10T11:38:55;27.40;88.70
3542;DHT22;1785;47.388;8.538;2023-06-10T11:41:21;27.20;89.40
3542;DHT22;1785;47.388;8.538;2023-06-10T11:43:49;27.40;89.00
3542;DHT22;1785;47.388;8.538;2023-06-10T11:46:16;27.30;86.00
3542;DHT22;1785;47.388;8.538;2023-06-10T11:48:48;27.30;87.10
3542;DHT22;1785;47.388;8.538;2023-06-10T11:51:17;27.50;86.80
3542;DHT22;1785;47.388;8.538;2023-06-10T11:53:44;27.50;86.70
3542;DHT22;1785;47.388;8.538;2023-06-10T11:56:11;27.40;86.70
3542;DHT22;1785;47.388;8.538;2023-06-10T11:58:39;27.50;86.80
3542;DHT22;1785;47.388;8.538;2023-06-10T12:01:10;27.70;86.40
3542;DHT22;1785;47.388;8.538;2023-06-10T12:03:37;27.90;86.60
3542;DHT22;1785;47.388;8.538;2023-06-10T12:06:04;27.70;85.90
3542;DHT22;1785;47.388;8.538;2023-06-10T12:08:32;28.00;86.70
3542;DHT22;1785;47.388;8.538;2023-06-10T12:10:58;28.10;85.80
3542;DHT22;1785;47.388;8.538;2023-06-10T12:13:26;28.10;84.70
3542;DHT22;1785;47.388;8.538;2023-06-10T12:15:53;28.20;85.50
3542;DHT22;1785;47.388;8.538;2023-06-10T12:18:21;28.30;85.00
3542;DHT22;1785;47.388;8.538;2023-06-10T12:20:47;28.50;83.60
3542;DHT22;1785;47.388;8.538;2023-06-10T12:23:15;28.70;84.80
3542;DHT22;1785;47.388;8.538;2023-06-10T12:25:50;29.00;84.00
3542;DHT22;1785;47.388;8.538;2023-06-10T12:28:17;28.80;84.30
3542;DHT22;1785;47.388;8.538;2023-06-10T12:30:46;28.70;82.30
3542;DHT22;1785;47.388;8.538;2023-06-10T12:33:16;28.50;84.00
3542;DHT22;1785;47.388;8.538;2023-06-10T12:35:48;28.70;84.30
3542;DHT22;1785;47.388;8.538;2023-06-10T12:38:15;28.70;83.10
3542;DHT22;1785;47.388;8.538;2023-06-10T12:40:47;28.90;83.20
3542;DHT22;1785;47.388;8.538;2023-06-10T12:43:19;29.00;81.50
3542;DHT22;1785;47.388;8.538;2023-06-10T12:45:45;29.20;80.20
3542;DHT22;1785;47.388;8.538;2023-06-10T12:48:16;28.80;80.40
3542;DHT22;1785;47.388;8.538;2023-06-10T12:50:43;28.80;80.40
3542;DHT22;1785;47.388;8.538;2023-06-10T12:53:10;28.90;81.00
3542;DHT22;1785;47.388;8.538;2023-06-10T12:55:38;28.60;79.40
3542;DHT22;1785;47.388;8.538;2023-06-10T12:58:05;28.30;81.20
3542;DHT22;1785;47.388;8.538;2023-06-10T13:00:31;28.40;80.60
3542;DHT22;1785;47.388;8.538;2023-06-10T13:03:01;28.50;80.50
3542;DHT22;1785;47.388;8.538;2023-06-10T13:05:28;29.00;80.10
3542;DHT22;1785;47.388;8.538;2023-06-10T13:07:55;28.80;78.90
3542;DHT22;1785;47.388;8.538;2023-06-10T13:10:22;29.10;79.40
3542;DHT22;1785;47.388;8.538;2023-06-10T13:12:48;29.20;77.60
3542;DHT22;1785;47.388;8.538;2023-06-10T13:15:15;29.20;77.10
3542;DHT22;1785;47.388;8.538;2023-06-10T13:17:44;29.40;77.50
3542;DHT22;1785;47.388;8.538;2023-06-10T13:20:14;29.80;76.80
3542;DHT22;1785;47.388;8.538;2023-06-10T13:22:42;30.00;77.00
3542;DHT22;1785;47.388;8.538;2023-06-10T13:25:09;30.00;77.20
3542;DHT22;1785;47.388;8.538;2023-06-10T13:27:38;30.00;77.10
3542;DHT22;1785;47.388;8.538;2023-06-10T13:30:05;30.20;77.00
3542;DHT22;1785;47.388;8.538;2023-06-10T13:32:32;30.30;77.10
3542;DHT22;1785;47.388;8.538;2023-06-10T13:34:59;30.50;76.00
3542;DHT22;1785;47.388;8.538;2023-06-10T13:37:25;30.00;76.90
3542;DHT22;1785;47.388;8.538;2023-06-10T13:39:52;30.00;77.40
3542;DHT22;1785;47.388;8.538;2023-06-10T13:42:21;30.20;75.70
3542;DHT22;1785;47.388;8.538;2023-06-10T13:44:47;30.30;76.30
3542;DHT22;1785;47.388;8.538;2023-06-10T13:47:14;30.40;75.80
3542;DHT22;1785;47.388;8.538;2023-06-10T13:49:40;30.20;75.50
3542;DHT22;1785;47.388;8.538;2023-06-10T13:52:11;29.80;77.40
3542;DHT22;1785;47.388;8.538;2023-06-10T13:54:37;30.10;77.10
3542;DHT22;1785;47.388;8.538;2023-06-10T13:57:04;30.30;76.70
3542;DHT22;1785;47.388;8.538;2023-06-10T13:59:30;30.20;74.70
3542;DHT22;1785;47.388;8.538;2023-06-10T14:01:57;30.10;74.90
3542;DHT22;1785;47.388;8.538;2023-06-10T14:04:23;30.00;75.70
3542;DHT22;1785;47.388;8.538;2023-06-10T14:06:50;30.20;75.20
3542;DHT22;1785;47.388;8.538;2023-06-10T14:09:17;30.30;73.70
3542;DHT22;1785;47.388;8.538;2023-06-10T14:11:43;30.00;75.50
3542;DHT22;1785;47.388;8.538;2023-06-10T14:14:09;29.80;77.40
3542;DHT22;1785;47.388;8.538;2023-06-10T14:16:35;29.80;76.60
3542;DHT22;1785;47.388;8.538;2023-06-10T14:19:02;29.80;76.60
3542;DHT22;1785;47.388;8.538;2023-06-10T14:21:28;30.30;76.20
3542;DHT22;1785;47.388;8.538;2023-06-10T14:23:54;30.60;76.10
3542;DHT22;1785;47.388;8.538;2023-06-10T14:26:21;30.70;75.50
3542;DHT22;1785;47.388;8.538;2023-06-10T14:28:47;30.80;74.20
3542;DHT22;1785;47.388;8.538;2023-06-10T14:31:13;31.20;74.20
3542;DHT22;1785;47.388;8.538;2023-06-10T14:33:40;31.30;72.20
3542;DHT22;1785;47.388;8.538;2023-06-10T14:36:11;31.00;71.40
3542;DHT22;1785;47.388;8.538;2023-06-10T14:38:38;31.30;71.50
3542;DHT22;1785;47.388;8.538;2023-06-10T14:41:04;31.40;71.80
3542;DHT22;1785;47.388;8.538;2023-06-10T14:43:31;31.80;71.30
3542;DHT22;1785;47.388;8.538;2023-06-10T14:45:57;32.20;69.90
3542;DHT22;1785;47.388;8.538;2023-06-10T14:48:23;32.20;70.60
3542;DHT22;1785;47.388;8.538;2023-06-10T14:50:49;32.20;68.80
3542;DHT22;1785;47.388;8.538;2023-06-10T14:53:16;31.90;68.70
3542;DHT22;1785;47.388;8.538;2023-06-10T14:55:42;31.50;69.10
3542;DHT22;1785;47.388;8.538;2023-06-10T14:58:08;31.30;70.60
3542;DHT22;1785;47.388;8.538;2023-06-10T15:00:35;31.60;70.80
3542;DHT22;1785;47.388;8.538;2023-06-10T15:03:01;31.50;71.90
3542;DHT22;1785;47.388;8.538;2023-06-10T15:05:28;31.60;71.50
3542;DHT22;1785;47.388;8.538;2023-06-10T15:07:58;31.80;71.10
3542;DHT22;1785;47.388;8.538;2023-06-10T15:10:24;32.00;70.70
3542;DHT22;1785;47.388;8.538;2023-06-10T15:12:51;31.90;70.40
3542;DHT22;1785;47.388;8.538;2023-06-10T15:15:21;31.80;69.90
3542;DHT22;1785;47.388;8.538;2023-06-10T15:17:48;31.10;67.60
3542;DHT22;1785;47.388;8.538;2023-06-10T15:20:14;31.10;68.80
3542;DHT22;1785;47.388;8.538;2023-06-10T15:22:40;31.30;67.30
3542;DHT22;1785;47.388;8.538;2023-06-10T15:25:07;31.60;65.10
3542;DHT22;1785;47.388;8.538;2023-06-10T15:27:33;31.70;67.00
3542;DHT22;1785;47.388;8.538;2023-06-10T15:30:04;32.20;68.30
3542;DHT22;1785;47.388;8.538;2023-06-10T15:32:31;32.50;66.40
3542;DHT22;1785;47.388;8.538;2023-06-10T15:34:57;32.60;67.50
3542;DHT22;1785;47.388;8.538;2023-06-10T15:37:23;32.60;68.60
3542;DHT22;1785;47.388;8.538;2023-06-10T15:39:50;32.80;68.00
3542;DHT22;1785;47.388;8.538;2023-06-10T15:42:17;32.50;67.50
3542;DHT22;1785;47.388;8.538;2023-06-10T15:44:43;32.10;68.50
3542;DHT22;1785;47.388;8.538;2023-06-10T15:47:09;31.90;69.40
3542;DHT22;1785;47.388;8.538;2023-06-10T15:49:35;31.80;69.10
3542;DHT22;1785;47.388;8.538;2023-06-10T15:52:03;31.70;69.60
3542;DHT22;1785;47.388;8.538;2023-06-10T15:54:29;31.40;69.90
3542;DHT22;1785;47.388;8.538;2023-06-10T15:56:55;31.20;69.90
3542;DHT22;1785;47.388;8.538;2023-06-10T15:59:21;31.30;70.50
3542;DHT22;1785;47.388;8.538;2023-06-10T16:01:47;30.70;70.50
3542;DHT22;1785;47.388;8.538;2023-06-10T16:04:13;31.00;71.60